Time;durP1;ratioP1;P1;durP2;ratioP2;P2;SDS_P1;SDS_P2;PMS_P1;PMS_P2;Temp;Humidity;BMP_temperature;BMP_pressure;BME280_temperature;BME280_humidity;BME280_pressure;Samples;Min_cycle;Max_cycle;Signal;HPM_P1;HPM_P2
2022/05/18 00:01:11;;;;;;;3.80;3.23;;;19.20;97.70;;;;;;10492956;28;20195;-77
2022/05/18 00:06:14;;;;;;;6.70;4.17;;;19.20;98.00;;;;;;10486552;28;20213;-76
2022/05/18 00:11:19;;;;;;;3.70;3.40;;;19.10;97.80;;;;;;10490213;28;20212;-76
2022/05/18 00:16:24;;;;;;;3.70;3.50;;;19.10;97.90;;;;;;10491895;28;20226;-76
2022/05/18 00:21:26;;;;;;;4.30;3.93;;;19.00;98.10;;;;;;10474519;28;20279;-76
2022/05/18 00:26:28;;;;;;;3.80;3.57;;;18.90;98.20;;;;;;10492025;28;20220;-76
2022/05/18 00:31:32;;;;;;;5.27;4.40;;;18.80;97.90;;;;;;10491485;28;20248;-76
2022/05/18 00:36:34;;;;;;;4.33;4.03;;;18.60;97.90;;;;;;10491475;28;20291;-76
2022/05/18 00:41:37;;;;;;;4.00;3.70;;;18.60;98.40;;;;;;10486410;28;20267;-76
2022/05/18 00:46:41;;;;;;;4.47;4.17;;;18.60;98.40;;;;;;10466677;28;20220;-76
2022/05/18 00:51:48;;;;;;;3.53;3.30;;;18.40;98.80;;;;;;10491440;28;20248;-76
2022/05/18 00:56:55;;;;;;;5.33;4.83;;;18.50;98.50;;;;;;10491693;28;20235;-76
2022/05/18 01:02:00;;;;;;;4.13;3.90;;;18.50;98.50;;;;;;10484657;28;20208;-76
2022/05/18 01:07:07;;;;;;;4.60;4.30;;;18.50;98.40;;;;;;10471273;28;20700;-76
2022/05/18 01:12:12;;;;;;;4.47;4.07;;;18.40;98.70;;;;;;10476679;28;20216;-76
2022/05/18 01:17:19;;;;;;;4.40;4.10;;;18.40;98.60;;;;;;10494389;28;20324;-76
2022/05/18 01:22:33;;;;;;;5.10;4.70;;;18.30;98.80;;;;;;10497870;28;20196;-77
2022/05/18 01:27:37;;;;;;;4.40;4.20;;;18.30;99.40;;;;;;10498084;28;20299;-77
2022/05/18 01:32:41;;;;;;;5.10;4.70;;;18.30;99.20;;;;;;10496931;28;20269;-76
2022/05/18 01:37:43;;;;;;;4.70;4.40;;;18.30;99.80;;;;;;10458152;28;20739;-76
2022/05/18 01:42:50;;;;;;;5.20;4.80;;;18.20;99.60;;;;;;10477465;28;20288;-76
2022/05/18 01:47:52;;;;;;;5.53;5.03;;;18.10;99.30;;;;;;10491006;28;20228;-76
2022/05/18 01:52:54;;;;;;;5.33;4.83;;;18.10;99.40;;;;;;10484456;28;20226;-76
2022/05/18 01:57:57;;;;;;;5.37;4.97;;;18.10;99.20;;;;;;10479575;28;20623;-76
2022/05/18 02:03:00;;;;;;;6.43;4.50;;;18.10;99.10;;;;;;10497360;28;20594;-75
2022/05/18 02:08:02;;;;;;;5.07;4.77;;;18.10;99.60;;;;;;10497610;28;20239;-76
2022/05/18 02:13:05;;;;;;;5.00;4.60;;;18.00;99.30;;;;;;10490193;28;20697;-76
2022/05/18 02:18:08;;;;;;;5.10;4.80;;;18.00;99.50;;;;;;10497072;28;20234;-75
2022/05/18 02:23:10;;;;;;;8.13;5.30;;;18.00;99.20;;;;;;10489431;28;20200;-77
2022/05/18 02:28:14;;;;;;;6.10;5.60;;;17.90;99.50;;;;;;10495574;28;20213;-76
2022/05/18 02:33:16;;;;;;;5.67;5.27;;;17.70;99.50;;;;;;10469236;28;20220;-75
2022/05/18 02:38:18;;;;;;;5.00;4.60;;;17.60;99.90;;;;;;10473307;28;20221;-76
2022/05/18 02:43:21;;;;;;;5.37;4.97;;;17.70;99.90;;;;;;10487275;28;20267;-76
2022/05/18 02:48:23;;;;;;;5.77;5.27;;;17.70;99.90;;;;;;10491739;28;20235;-76
2022/05/18 02:53:26;;;;;;;4.90;4.60;;;17.70;99.70;;;;;;10470652;28;20328;-76
2022/05/18 02:58:30;;;;;;;5.83;5.43;;;17.70;99.50;;;;;;10495473;28;20578;-76
2022/05/18 03:03:32;;;;;;;5.10;4.57;;;17.60;99.60;;;;;;10477498;28;20192;-76
2022/05/18 03:08:37;;;;;;;6.43;5.63;;;17.50;99.90;;;;;;10494967;28;20216;-75
2022/05/18 03:13:41;;;;;;;5.93;5.50;;;17.50;99.90;;;;;;10489680;28;20224;-75
2022/05/18 03:18:43;;;;;;;5.10;4.80;;;17.50;99.70;;;;;;10488059;28;20221;-75
2022/05/18 03:23:46;;;;;;;6.30;5.70;;;17.50;99.90;;;;;;10493814;28;20219;-76
2022/05/18 03:28:52;;;;;;;5.07;4.67;;;17.50;99.90;;;;;;10475784;28;20659;-76
2022/05/18 03:33:55;;;;;;;6.10;5.50;;;17.50;99.90;;;;;;10492507;28;20220;-76
2022/05/18 03:38:57;;;;;;;6.33;5.93;;;17.50;99.70;;;;;;10487073;28;20270;-76
2022/05/18 03:44:01;;;;;;;6.30;5.80;;;17.30;99.90;;;;;;10493561;28;20197;-75
2022/05/18 03:49:04;;;;;;;5.90;5.23;;;17.30;99.90;;;;;;10470545;28;20533;-76
2022/05/18 03:54:07;;;;;;;4.80;4.50;;;17.40;99.90;;;;;;10486307;28;20246;-76
2022/05/18 03:59:11;;;;;;;5.13;4.77;;;17.40;99.90;;;;;;10472199;28;20225;-76
2022/05/18 04:04:13;;;;;;;6.93;5.10;;;17.40;99.90;;;;;;10472824;28;20274;-76
2022/05/18 04:09:15;;;;;;;5.80;5.33;;;17.50;99.90;;;;;;10490878;28;20235;-76
2022/05/18 04:14:19;;;;;;;5.40;4.73;;;17.50;99.90;;;;;;10487760;28;20220;-76
2022/05/18 04:19:21;;;;;;;6.10;5.60;;;17.40;99.90;;;;;;10491017;28;20227;-76
2022/05/18 04:24:23;;;;;;;6.90;6.30;;;17.40;99.90;;;;;;10471917;28;20785;-76
2022/05/18 04:29:26;;;;;;;5.27;4.87;;;17.50;99.90;;;;;;10490080;28;20768;-76
2022/05/18 04:34:28;;;;;;;6.90;6.17;;;17.60;99.90;;;;;;10471601;28;20703;-77
2022/05/18 04:39:30;;;;;;;6.83;6.13;;;17.70;99.90;;;;;;10489836;28;20224;-77
2022/05/18 04:44:34;;;;;;;10.63;7.10;;;17.60;99.90;;;;;;10467669;28;20205;-77
2022/05/18 04:49:36;;;;;;;6.07;5.67;;;17.60;99.90;;;;;;10489272;28;20269;-76
2022/05/18 04:54:38;;;;;;;8.00;5.43;;;17.60;99.90;;;;;;10491099;28;20388;-77
2022/05/18 04:59:48;;;;;;;7.40;5.83;;;17.60;99.90;;;;;;10487977;28;20287;-79
2022/05/18 05:04:50;;;;;;;6.90;6.27;;;17.50;99.90;;;;;;10444961;28;20586;-78
2022/05/18 05:09:52;;;;;;;5.43;5.03;;;17.50;99.90;;;;;;10473934;28;20197;-78
2022/05/18 05:14:55;;;;;;;6.00;5.40;;;17.60;99.90;;;;;;10473197;28;20224;-78
2022/05/18 05:20:01;;;;;;;6.50;5.90;;;17.70;99.90;;;;;;10476411;28;20232;-78
2022/05/18 05:25:03;;;;;;;5.73;5.33;;;17.60;99.90;;;;;;10451026;28;20212;-78
2022/05/18 05:30:08;;;;;;;6.67;5.47;;;17.70;99.90;;;;;;10491553;28;20193;-79
2022/05/18 05:35:12;;;;;;;7.27;5.03;;;17.70;99.90;;;;;;10495865;28;20233;-78
2022/05/18 05:40:16;;;;;;;5.80;5.40;;;17.80;99.90;;;;;;10476349;28;20193;-78
2022/05/18 05:45:20;;;;;;;6.83;5.93;;;17.90;99.90;;;;;;10505195;22;20254;-80
2022/05/18 05:50:22;;;;;;;6.40;5.80;;;18.00;99.90;;;;;;10448374;28;20208;-79
2022/05/18 05:55:24;;;;;;;6.53;5.20;;;18.10;99.90;;;;;;10452796;28;20700;-80
2022/05/18 06:00:28;;;;;;;6.87;6.27;;;18.10;99.90;;;;;;10469572;28;20588;-80
2022/05/18 06:05:30;;;;;;;8.40;6.40;;;18.20;99.90;;;;;;10455733;28;20218;-81
2022/05/18 06:10:34;;;;;;;7.93;6.50;;;18.30;99.90;;;;;;10443750;28;20201;-80
2022/05/18 06:15:39;;;;;;;10.03;5.77;;;18.40;99.90;;;;;;10451926;28;20234;-79
2022/05/18 06:20:41;;;;;;;7.33;6.80;;;18.50;99.90;;;;;;10461913;28;20204;-80
2022/05/18 06:25:44;;;;;;;8.97;8.10;;;18.70;99.90;;;;;;10461840;28;20224;-80
2022/05/18 06:30:47;;;;;;;6.33;5.93;;;18.90;99.90;;;;;;10461697;28;20208;-81
2022/05/18 06:35:51;;;;;;;9.77;5.80;;;19.10;99.90;;;;;;10460913;28;20225;-81
2022/05/18 06:46:14;;;;;;;7.33;5.53;;;19.50;99.90;;;;;;10454723;28;20271;-80
2022/05/18 06:51:22;;;;;;;6.80;5.90;;;19.80;99.90;;;;;;10465399;28;20545;-80
2022/05/18 06:56:28;;;;;;;7.03;6.10;;;20.10;99.90;;;;;;10463747;28;20750;-80
2022/05/18 07:01:32;;;;;;;11.13;6.33;;;20.40;99.90;;;;;;10460498;28;20657;-80
2022/05/18 07:06:40;;;;;;;7.10;5.90;;;20.70;99.90;;;;;;10460444;28;20783;-80
2022/05/18 07:11:42;;;;;;;8.40;5.97;;;20.90;99.90;;;;;;10454550;28;20251;-80
2022/05/18 07:16:47;;;;;;;4.93;4.50;;;21.30;99.90;;;;;;10460537;28;20222;-79
2022/05/18 07:21:49;;;;;;;5.77;4.90;;;21.50;97.80;;;;;;10452733;28;20205;-79
2022/05/18 07:26:51;;;;;;;4.47;4.13;;;21.80;96.70;;;;;;10458719;28;20249;-80
2022/05/18 07:32:12;;;;;;;4.57;4.27;;;22.10;95.40;;;;;;10459817;28;20277;-79
2022/05/18 07:37:15;;;;;;;4.30;4.00;;;22.60;96.30;;;;;;10441958;28;20255;-79
2022/05/18 07:42:17;;;;;;;6.13;4.27;;;23.00;95.30;;;;;;10460095;28;20735;-80
2022/05/18 07:47:28;;;;;;;5.00;4.50;;;23.50;94.60;;;;;;10459630;28;20220;-79
2022/05/18 07:52:30;;;;;;;6.10;4.17;;;24.00;93.90;;;;;;10451623;28;20224;-79
2022/05/18 07:57:34;;;;;;;4.23;3.90;;;24.60;93.40;;;;;;10459581;28;20296;-79
2022/05/18 08:02:37;;;;;;;5.67;4.13;;;25.20;91.20;;;;;;10459476;28;20289;-80
2022/05/18 08:07:45;;;;;;;3.93;3.63;;;25.80;90.20;;;;;;10440309;28;20228;-80
2022/05/18 08:18:09;;;;;;;4.93;4.50;;;26.70;88.90;;;;;;10451905;28;20216;-81
2022/05/18 08:23:12;;;;;;;4.73;4.33;;;27.10;85.00;;;;;;10449985;28;20281;-81
2022/05/18 08:28:15;;;;;;;4.30;3.90;;;27.50;83.00;;;;;;10453034;28;20643;-80
2022/05/18 08:33:19;;;;;;;4.97;4.57;;;27.70;82.20;;;;;;10454650;28;20225;-81
2022/05/18 08:38:22;;;;;;;4.67;4.33;;;27.90;82.50;;;;;;10433536;28;20307;-79
2022/05/18 08:43:27;;;;;;;4.67;4.23;;;28.20;81.60;;;;;;10450588;28;20224;-79
2022/05/18 08:48:43;;;;;;;4.63;4.33;;;28.50;79.00;;;;;;10459169;28;20704;-78
2022/05/18 08:53:54;;;;;;;4.80;4.37;;;28.60;76.20;;;;;;10464087;28;20270;-78
2022/05/18 08:58:57;;;;;;;4.33;4.03;;;28.60;77.10;;;;;;10437274;28;20229;-78
2022/05/18 09:04:06;;;;;;;4.40;3.93;;;28.90;77.60;;;;;;10458286;28;20304;-79
2022/05/18 09:14:38;;;;;;;6.50;3.90;;;29.40;72.30;;;;;;10450484;28;20213;-78
2022/05/18 09:19:49;;;;;;;2.80;2.60;;;29.50;71.70;;;;;;10452129;28;20225;-80
2022/05/18 09:25:02;;;;;;;4.10;3.70;;;29.60;74.70;;;;;;10457750;28;20189;-80
2022/05/18 09:30:14;;;;;;;4.27;3.90;;;29.80;74.80;;;;;;10464742;28;20688;-79
2022/05/18 09:35:32;;;;;;;4.03;3.83;;;30.10;73.90;;;;;;10466159;28;20225;-79
2022/05/18 09:40:39;;;;;;;4.10;3.70;;;30.20;71.50;;;;;;10471075;28;20204;-79
2022/05/18 09:45:45;;;;;;;3.70;3.50;;;30.40;68.80;;;;;;10470240;28;20902;-80
2022/05/18 09:50:50;;;;;;;3.80;3.60;;;30.80;66.30;;;;;;10476760;28;20201;-80
2022/05/18 09:55:53;;;;;;;3.23;2.83;;;31.30;65.00;;;;;;10465171;28;20592;-80
2022/05/18 10:07:27;;;;;;;3.40;3.20;;;32.00;60.80;;;;;;10453724;28;20201;-80
2022/05/18 10:11:44;;;;;;;3.63;3.40;;;34.60;59.70;;;;;;10472177;28;20201;-80
2022/05/18 10:16:48;;;;;;;4.27;3.40;;;35.20;54.80;;;;;;10462476;28;20221;-78
2022/05/18 10:21:55;;;;;;;3.70;3.30;;;34.10;56.50;;;;;;10464313;28;20566;-79
2022/05/18 10:27:12;;;;;;;3.37;3.10;;;32.40;54.20;;;;;;10469048;28;20631;-78
2022/05/18 10:32:22;;;;;;;3.80;3.50;;;31.00;54.50;;;;;;10469721;28;20205;-79
2022/05/18 10:37:29;;;;;;;4.00;2.93;;;29.80;58.00;;;;;;10464423;28;20768;-79
2022/05/18 10:42:42;;;;;;;3.03;2.83;;;28.90;57.10;;;;;;10464482;28;20243;-79
2022/05/18 10:47:49;;;;;;;3.40;3.10;;;28.20;60.40;;;;;;10466901;28;20249;-78
2022/05/18 10:52:54;;;;;;;2.77;2.67;;;27.60;62.50;;;;;;10455822;28;20197;-79
2022/05/18 10:58:01;;;;;;;3.37;3.20;;;27.20;62.00;;;;;;10466613;28;20205;-79
2022/05/18 11:03:13;;;;;;;3.20;2.90;;;26.90;63.00;;;;;;10463361;28;20191;-79
2022/05/18 11:08:19;;;;;;;3.30;3.10;;;26.60;62.50;;;;;;10456741;28;20221;-78
2022/05/18 11:13:29;;;;;;;3.77;3.37;;;26.40;65.30;;;;;;10458013;28;20306;-78
2022/05/18 11:18:42;;;;;;;4.20;3.90;;;26.20;65.70;;;;;;10468060;28;20756;-79
2022/05/18 11:23:55;;;;;;;7.23;3.97;;;26.10;68.20;;;;;;10467814;28;20761;-79
2022/05/18 11:29:12;;;;;;;3.80;3.50;;;26.00;65.00;;;;;;10467250;28;20353;-78
2022/05/18 11:34:25;;;;;;;3.47;3.27;;;26.00;65.10;;;;;;10463233;28;20218;-79
2022/05/18 11:39:35;;;;;;;4.53;4.13;;;25.80;67.80;;;;;;10447563;28;20308;-80
2022/05/18 11:44:47;;;;;;;5.40;3.40;;;25.70;65.00;;;;;;10458846;28;20197;-80
2022/05/18 11:49:58;;;;;;;4.00;3.70;;;25.70;67.20;;;;;;10458001;22;20225;-78
2022/05/18 11:55:17;;;;;;;4.20;3.90;;;25.60;66.80;;;;;;10452106;28;20220;-78
2022/05/18 12:00:33;;;;;;;4.47;3.80;;;25.60;66.00;;;;;;10411759;28;20779;-78
2022/05/18 12:05:58;;;;;;;5.13;3.50;;;25.60;66.80;;;;;;10410864;28;20198;-79
2022/05/18 12:11:09;;;;;;;3.67;3.30;;;25.60;67.10;;;;;;10392439;28;20233;-78
2022/05/18 12:16:21;;;;;;;3.60;3.40;;;25.50;68.10;;;;;;10386522;28;20684;-78
2022/05/18 12:21:28;;;;;;;3.80;3.03;;;25.50;67.50;;;;;;10403602;28;20669;-78
2022/05/18 12:26:39;;;;;;;8.17;3.90;;;25.50;69.70;;;;;;10386379;28;20222;-78
2022/05/18 12:31:43;;;;;;;3.43;3.17;;;25.50;69.40;;;;;;10403404;28;20225;-78
2022/05/18 12:36:51;;;;;;;3.87;3.50;;;25.40;68.60;;;;;;10396362;28;20233;-78
2022/05/18 12:41:59;;;;;;;3.80;3.50;;;25.40;70.70;;;;;;10397154;28;20206;-79
2022/05/18 12:47:17;;;;;;;3.80;3.50;;;25.30;71.40;;;;;;10382858;28;20230;-79
2022/05/18 12:52:43;;;;;;;3.30;3.10;;;25.50;66.40;;;;;;10404574;28;20288;-78
2022/05/18 12:57:51;;;;;;;3.33;3.13;;;25.50;67.70;;;;;;10410306;28;20328;-78
2022/05/18 13:02:56;;;;;;;3.10;2.80;;;25.60;66.50;;;;;;10389725;28;20280;-78
2022/05/18 13:08:04;;;;;;;3.47;3.17;;;25.60;70.00;;;;;;10408761;28;20260;-78
2022/05/18 13:13:25;;;;;;;4.13;3.67;;;25.50;69.90;;;;;;10397959;28;20224;-79
2022/05/18 13:18:30;;;;;;;7.07;3.27;;;25.60;67.50;;;;;;10420891;28;20231;-79
2022/05/18 13:23:42;;;;;;;3.77;3.47;;;25.60;67.10;;;;;;10422907;28;20196;-79
2022/05/18 13:28:46;;;;;;;4.27;3.87;;;25.60;65.70;;;;;;10391893;28;20280;-78
2022/05/18 13:33:55;;;;;;;3.43;3.23;;;25.60;67.10;;;;;;10420829;28;20218;-78
2022/05/18 13:38:57;;;;;;;4.00;3.70;;;25.70;65.80;;;;;;10420506;28;20287;-79
2022/05/18 13:44:03;;;;;;;3.37;3.17;;;25.80;65.20;;;;;;10377653;28;20244;-79
2022/05/18 13:49:10;;;;;;;3.00;2.80;;;25.80;67.20;;;;;;10414880;28;20296;-79
2022/05/18 13:54:16;;;;;;;3.50;3.20;;;25.90;66.30;;;;;;10420104;28;20304;-79
2022/05/18 13:59:26;;;;;;;3.60;3.30;;;25.90;65.60;;;;;;10420322;28;20611;-79
2022/05/18 14:04:33;;;;;;;3.80;3.43;;;25.90;65.90;;;;;;10401968;28;20206;-79
2022/05/18 14:09:38;;;;;;;3.97;3.70;;;25.90;63.40;;;;;;10417705;28;20218;-79
2022/05/18 14:14:42;;;;;;;3.93;3.60;;;26.00;65.10;;;;;;10395254;28;20218;-78
2022/05/18 14:19:49;;;;;;;6.87;3.87;;;25.90;68.90;;;;;;10417668;28;20230;-78
2022/05/18 14:24:57;;;;;;;4.07;3.67;;;25.70;67.10;;;;;;10417307;28;20225;-78
2022/05/18 14:30:05;;;;;;;3.00;2.80;;;25.70;67.30;;;;;;10400177;28;20230;-78
2022/05/18 14:35:08;;;;;;;5.83;3.00;;;25.70;67.50;;;;;;10416925;28;20556;-78
2022/05/18 14:40:13;;;;;;;3.40;3.20;;;25.70;66.60;;;;;;10416891;28;20276;-78
2022/05/18 14:45:27;;;;;;;5.10;3.90;;;25.60;67.20;;;;;;10398963;28;20205;-78
2022/05/18 14:50:31;;;;;;;3.33;3.00;;;25.60;68.40;;;;;;10383929;28;20205;-78
2022/05/18 14:55:40;;;;;;;3.80;3.50;;;25.60;67.50;;;;;;10417628;28;20305;-78
2022/05/18 15:00:47;;;;;;;3.60;3.30;;;25.70;66.70;;;;;;10417884;28;20202;-78
2022/05/18 15:05:51;;;;;;;3.90;2.90;;;25.60;69.10;;;;;;10399442;28;20218;-78
2022/05/18 15:10:56;;;;;;;3.60;3.40;;;25.60;67.90;;;;;;10417124;28;20206;-78
2022/05/18 15:16:06;;;;;;;4.03;3.83;;;25.60;69.70;;;;;;10410933;28;20226;-78
2022/05/18 15:21:18;;;;;;;3.73;3.50;;;25.50;67.90;;;;;;10413011;28;20248;-78
2022/05/18 15:26:22;;;;;;;3.40;3.20;;;25.60;69.70;;;;;;10406512;28;20221;-78
2022/05/18 15:31:30;;;;;;;3.17;2.97;;;25.60;72.40;;;;;;10387109;28;20206;-78
2022/05/18 15:36:33;;;;;;;3.37;3.20;;;25.60;70.60;;;;;;10394697;28;20605;-78
2022/05/18 15:41:35;;;;;;;3.63;3.33;;;25.60;69.30;;;;;;10367059;28;20207;-78
2022/05/18 15:46:43;;;;;;;4.10;3.80;;;25.60;70.60;;;;;;10405809;28;20253;-77
2022/05/18 15:51:45;;;;;;;3.53;3.30;;;25.50;71.40;;;;;;10408916;28;20209;-77
2022/05/18 15:56:47;;;;;;;5.17;3.60;;;25.40;72.00;;;;;;10411794;28;20272;-78
2022/05/18 16:01:50;;;;;;;3.20;2.90;;;25.30;71.10;;;;;;10411513;28;20212;-78
2022/05/18 16:06:53;;;;;;;3.33;3.13;;;25.40;68.60;;;;;;10410193;28;20206;-78
2022/05/18 16:11:55;;;;;;;3.90;3.60;;;25.50;69.00;;;;;;10398211;28;20584;-78
2022/05/18 16:16:59;;;;;;;4.23;3.83;;;25.60;68.40;;;;;;10410500;28;20340;-78
2022/05/18 16:22:01;;;;;;;6.03;3.07;;;25.80;68.20;;;;;;10393520;28;20213;-78
2022/05/18 16:27:04;;;;;;;3.50;3.20;;;25.80;67.60;;;;;;10411604;28;20229;-78
2022/05/18 16:32:08;;;;;;;3.17;2.93;;;25.80;69.10;;;;;;10412971;28;20198;-78
2022/05/18 16:37:10;;;;;;;3.17;2.97;;;25.80;67.40;;;;;;10394092;28;20280;-78
2022/05/18 16:42:17;;;;;;;3.47;3.27;;;25.80;65.90;;;;;;10406752;28;20205;-77
2022/05/18 16:47:22;;;;;;;3.10;2.50;;;25.90;65.90;;;;;;10392185;28;20234;-77
2022/05/18 16:52:24;;;;;;;3.17;2.70;;;25.80;65.90;;;;;;10410016;28;20205;-77
2022/05/18 16:57:29;;;;;;;3.00;2.80;;;25.90;66.20;;;;;;10408203;28;20234;-77
2022/05/18 17:02:33;;;;;;;3.73;3.30;;;25.80;69.10;;;;;;10389241;28;20677;-77
2022/05/18 17:07:35;;;;;;;3.10;2.90;;;25.80;70.10;;;;;;10409931;28;20221;-77
2022/05/18 17:12:40;;;;;;;2.80;2.70;;;25.80;69.10;;;;;;10398271;28;20206;-77
2022/05/18 17:17:44;;;;;;;3.23;3.03;;;25.80;68.80;;;;;;10397543;28;20237;-77
2022/05/18 17:22:48;;;;;;;3.40;3.10;;;25.70;69.90;;;;;;10384455;28;20218;-77
2022/05/18 17:27:50;;;;;;;4.00;3.60;;;25.60;69.30;;;;;;10408630;28;20276;-76
2022/05/18 17:32:57;;;;;;;3.87;3.60;;;25.60;69.70;;;;;;10408941;28;20289;-77
2022/05/18 17:37:59;;;;;;;4.20;3.43;;;25.50;71.50;;;;;;10403961;28;20698;-77
2022/05/18 17:43:02;;;;;;;4.23;3.97;;;25.50;71.40;;;;;;10403430;28;20290;-77
2022/05/18 17:48:09;;;;;;;3.43;3.23;;;25.50;71.30;;;;;;10408502;28;20593;-77
2022/05/18 17:53:11;;;;;;;3.93;3.63;;;25.50;71.80;;;;;;10407613;28;20292;-77
2022/05/18 17:58:14;;;;;;;4.30;4.00;;;25.40;73.50;;;;;;10406311;28;20222;-78
2022/05/18 18:03:25;;;;;;;4.13;3.83;;;25.20;75.00;;;;;;10398007;28;20210;-77
2022/05/18 18:08:27;;;;;;;4.33;4.00;;;25.00;74.30;;;;;;10395073;28;20272;-77
2022/05/18 18:13:31;;;;;;;4.30;4.00;;;25.00;75.70;;;;;;10408736;28;20206;-77
2022/05/18 18:18:37;;;;;;;3.53;3.30;;;24.90;75.80;;;;;;10396873;28;20229;-77
2022/05/18 18:23:42;;;;;;;4.93;4.53;;;24.80;74.60;;;;;;10415544;28;20209;-77
2022/05/18 18:28:46;;;;;;;4.53;4.13;;;24.80;74.50;;;;;;10413617;28;20214;-77
2022/05/18 18:33:50;;;;;;;4.47;4.07;;;24.70;75.80;;;;;;10411654;28;20212;-77
2022/05/18 18:38:55;;;;;;;4.20;3.90;;;24.60;75.50;;;;;;10413660;28;20217;-77
2022/05/18 18:43:57;;;;;;;4.83;4.23;;;24.50;75.10;;;;;;10412489;28;20198;-77
2022/05/18 18:49:01;;;;;;;5.13;4.73;;;24.40;78.80;;;;;;10413449;28;20745;-77
2022/05/18 18:59:24;;;;;;;4.87;4.60;;;24.20;77.80;;;;;;10397381;28;20686;-77
2022/05/18 19:04:27;;;;;;;4.47;4.17;;;24.00;78.20;;;;;;10374206;28;20206;-77
2022/05/18 19:09:34;;;;;;;4.30;4.00;;;23.90;77.10;;;;;;10390847;28;20240;-77
2022/05/18 19:14:36;;;;;;;5.00;4.70;;;23.90;78.50;;;;;;10404494;28;20218;-77
2022/05/18 19:19:40;;;;;;;6.27;4.87;;;23.80;77.50;;;;;;10408056;28;20221;-77
2022/05/18 19:24:42;;;;;;;4.43;4.10;;;23.70;77.10;;;;;;10390436;28;20297;-77
2022/05/18 19:29:47;;;;;;;4.40;4.10;;;23.70;78.30;;;;;;10374876;28;20222;-77
2022/05/18 19:34:50;;;;;;;7.37;4.53;;;23.60;78.40;;;;;;10408333;28;20217;-77
2022/05/18 19:39:52;;;;;;;4.30;4.00;;;23.60;79.30;;;;;;10408907;28;20275;-77
2022/05/18 19:44:55;;;;;;;3.80;3.60;;;23.50;78.70;;;;;;10405731;28;20290;-77
2022/05/18 19:49:58;;;;;;;4.60;4.23;;;23.50;80.20;;;;;;10400880;28;20229;-77
2022/05/18 19:55:00;;;;;;;4.50;4.10;;;23.40;79.60;;;;;;10407856;28;20221;-77
2022/05/18 20:00:04;;;;;;;4.43;4.13;;;23.30;81.40;;;;;;10399356;28;20316;-77
2022/05/18 20:05:15;;;;;;;5.47;5.07;;;23.20;81.50;;;;;;10407037;28;20202;-77
2022/05/18 20:10:18;;;;;;;5.03;4.73;;;23.00;81.50;;;;;;10406724;28;20222;-77
2022/05/18 20:15:22;;;;;;;4.43;4.23;;;23.00;81.70;;;;;;10401830;28;20226;-77
2022/05/18 20:20:29;;;;;;;4.50;4.13;;;22.90;81.80;;;;;;10405446;28;20309;-77
2022/05/18 20:25:33;;;;;;;5.73;4.40;;;22.80;82.60;;;;;;10405575;28;20196;-77
2022/05/18 20:30:36;;;;;;;4.70;4.40;;;22.70;83.20;;;;;;10406562;28;20205;-77
2022/05/18 20:35:39;;;;;;;5.17;4.80;;;22.70;83.30;;;;;;10405686;28;20322;-77
2022/05/18 20:40:42;;;;;;;5.10;4.60;;;22.60;83.90;;;;;;10406859;28;20209;-77
2022/05/18 20:45:45;;;;;;;4.20;3.90;;;22.60;83.50;;;;;;10400761;28;20205;-77
2022/05/18 20:50:49;;;;;;;4.50;4.20;;;22.50;82.60;;;;;;10403206;28;20205;-77
2022/05/18 20:55:57;;;;;;;4.30;3.97;;;22.60;81.40;;;;;;10386730;28;20336;-77
2022/05/18 21:00:59;;;;;;;6.93;4.30;;;22.50;82.40;;;;;;10384727;28;20200;-77
2022/05/18 21:06:02;;;;;;;4.30;4.00;;;22.50;82.90;;;;;;10405763;28;20705;-78
2022/05/18 21:11:05;;;;;;;4.50;4.30;;;22.50;82.10;;;;;;10404115;28;20233;-77
2022/05/18 21:16:07;;;;;;;4.23;3.93;;;22.50;82.10;;;;;;10403524;28;20225;-77
2022/05/18 21:21:11;;;;;;;4.20;3.90;;;22.50;81.70;;;;;;10404481;28;20364;-77
2022/05/18 21:26:14;;;;;;;5.00;4.70;;;22.50;81.70;;;;;;10400550;28;20221;-77
2022/05/18 21:31:21;;;;;;;9.00;4.80;;;22.40;81.40;;;;;;10411067;28;20197;-77
2022/05/18 21:36:26;;;;;;;4.20;4.00;;;22.40;81.70;;;;;;10412439;28;20300;-77
2022/05/18 21:41:29;;;;;;;4.80;4.40;;;22.30;81.80;;;;;;10408393;28;20326;-77
2022/05/18 21:46:34;;;;;;;4.37;4.03;;;22.30;82.00;;;;;;10385495;28;20591;-77
2022/05/18 21:51:37;;;;;;;4.33;4.10;;;22.30;84.80;;;;;;10409142;28;20281;-77
2022/05/18 21:56:46;;;;;;;4.43;4.13;;;22.20;84.90;;;;;;10377587;28;20679;-77
2022/05/18 22:01:48;;;;;;;4.27;4.07;;;22.10;83.70;;;;;;10367034;28;20273;-76
2022/05/18 22:06:51;;;;;;;4.27;3.97;;;22.00;85.30;;;;;;10412381;28;20214;-76
2022/05/18 22:11:55;;;;;;;4.90;4.50;;;22.00;84.60;;;;;;10408807;28;20199;-76
2022/05/18 22:16:57;;;;;;;7.90;4.93;;;21.90;85.40;;;;;;10396309;28;20637;-77
2022/05/18 22:22:04;;;;;;;4.93;4.53;;;21.80;85.20;;;;;;10408731;28;20206;-76
2022/05/18 22:27:11;;;;;;;4.77;4.37;;;21.70;85.50;;;;;;10375501;28;20222;-77
2022/05/18 22:32:16;;;;;;;4.30;4.00;;;21.60;85.80;;;;;;10383767;28;20207;-76
2022/05/18 22:37:22;;;;;;;4.90;4.60;;;21.40;85.90;;;;;;10375509;28;20250;-77
2022/05/18 22:42:29;;;;;;;4.50;4.20;;;21.30;86.50;;;;;;10360742;28;20206;-77
2022/05/18 22:47:33;;;;;;;4.80;4.40;;;21.20;86.90;;;;;;10386440;28;20253;-77
2022/05/18 22:52:37;;;;;;;4.77;4.47;;;21.00;86.80;;;;;;10413726;28;20202;-76
2022/05/18 22:57:39;;;;;;;4.37;4.07;;;20.90;87.00;;;;;;10413736;28;20291;-76
2022/05/18 23:02:42;;;;;;;3.90;3.70;;;20.80;87.10;;;;;;10395577;28;20264;-76
2022/05/18 23:07:46;;;;;;;4.13;3.93;;;20.70;87.60;;;;;;10388627;28;20221;-76
2022/05/18 23:12:48;;;;;;;3.73;3.50;;;20.60;87.80;;;;;;10389181;28;20198;-76
2022/05/18 23:17:56;;;;;;;4.50;4.20;;;20.40;88.30;;;;;;10364748;28;20663;-77
2022/05/18 23:28:23;;;;;;;4.60;4.30;;;20.30;88.10;;;;;;10394662;28;20736;-76
2022/05/18 23:33:29;;;;;;;4.87;4.40;;;20.10;88.50;;;;;;10388490;28;20614;-77
2022/05/18 23:38:35;;;;;;;4.33;3.93;;;20.00;87.90;;;;;;10411882;28;20225;-77
2022/05/18 23:43:37;;;;;;;4.77;4.47;;;19.80;88.30;;;;;;10405182;28;20201;-77
2022/05/18 23:48:40;;;;;;;3.67;3.37;;;19.80;88.80;;;;;;10464910;22;20232;-81
2022/05/18 23:53:44;;;;;;;3.17;3.00;;;19.80;87.80;;;;;;10503373;28;20215;-79
2022/05/18 23:58:56;;;;;;;3.87;3.67;;;19.80;87.70;;;;;;10465069;28;20244;-81
